Red Oak, IA

11:35 PM CST on November 25, 2014 (GMT -0600)
Red Oak Municipal | Change Station
CLOSE
Current Station
Airport
Location: Red Oak,
Elevation: 1043 ft
Nearby Weather Stations

Elev 1043 ft 41.01 °N, 95.26 °W | Updated 20 minutes ago

Overcast
Overcast
37 °F
Feels Like 30 °F
N
12
Wind Variable Wind from SSE

Today
High -- | Low -- °F
--% Chance of Precip.
Yesterday
High -- | Low -- °F
Precip. -- in
7:19 AM 4:55 PM
Waxing Crescent, 16% visible
Pressure 29.91 in
Visibility 10.0 miles
Clouds Few 3800 ft
Mostly Cloudy 4900 ft
Overcast 6000 ft
Windchill 30 °F
Dew Point 23 °F
Humidity 56%
Rainfall 0.00 in
Snow Depth Not available.
UV 0 out of 12
Pollen .10 out of 12
Air Quality Not available.
Flu Activity Not available.
METAR KRDK 260515Z AUTO 16010KT 10SM FEW038 BKN049 OVC060 03/M05 A2991 RMK AO2

More Conditions Fewer Conditions

Pressure 29.91 in
Visibility 10.0 miles
Clouds Few 3800 ft
Mostly Cloudy 4900 ft
Overcast 6000 ft
Windchill 30 °F
Dew Point 23 °F
Humidity 56%
Rainfall 0.00 in
Snow Depth Not available.
UV 0 out of 12
Pollen .10 out of 12
Air Quality Not available.
Flu Activity Not available.
METAR KRDK 260515Z AUTO 16010KT 10SM FEW038 BKN049 OVC060 03/M05 A2991 RMK AO2

More Conditions Fewer Conditions

10-Day Weather Forecast

Almanac

Astronomy

Nov. 25, 2014 Rise Set
Actual Time
Civil Twilight
Nautical Twilight
Astronomical Twilight
Moon
Length of Visible Light
Length of Day
Tomorrow will be .
, % of the Moon is Illuminated

Today's Extremes

State Highs State Lows

Community

WunderPhotos

Upload Photos

1,773,683 photos uploaded!

WunderBlogs® & News

Nearby

Air Quality

  Air Quality AQ Index Pollutant
Not available.

Snow Depth

Station Depth Elevation

Earthquake Activity

City Distance Mag. Time & Date
Minimum magnitude displayed is 2.5.

Coastal Water Temperatures

Place Temperature

Nearby Weather Stations